sensor_id;sensor_type;location;lat;lon;timestamp;P1;durP1;ratioP1;P2;durP2;ratioP2
62153;SDS011;48140;45.486;9.226;2023-06-22T00:00:48;8.02;;;4.40;;
62153;SDS011;48140;45.486;9.226;2023-06-22T00:03:15;10.25;;;4.47;;
62153;SDS011;48140;45.486;9.226;2023-06-22T00:05:42;12.57;;;4.10;;
62153;SDS011;48140;45.486;9.226;2023-06-22T00:08:07;7.53;;;4.22;;
62153;SDS011;48140;45.486;9.226;2023-06-22T00:10:33;8.40;;;4.63;;
62153;SDS011;48140;45.486;9.226;2023-06-22T00:12:59;9.30;;;4.30;;
62153;SDS011;48140;45.486;9.226;2023-06-22T00:15:24;8.50;;;4.63;;
62153;SDS011;48140;45.486;9.226;2023-06-22T00:17:50;7.45;;;4.15;;
62153;SDS011;48140;45.486;9.226;2023-06-22T00:20:16;7.65;;;4.22;;
62153;SDS011;48140;45.486;9.226;2023-06-22T00:22:43;8.65;;;4.70;;
62153;SDS011;48140;45.486;9.226;2023-06-22T00:25:09;8.93;;;4.38;;
62153;SDS011;48140;45.486;9.226;2023-06-22T00:27:35;8.60;;;4.80;;
62153;SDS011;48140;45.486;9.226;2023-06-22T00:30:01;11.93;;;4.95;;
62153;SDS011;48140;45.486;9.226;2023-06-22T00:32:29;8.93;;;4.45;;
62153;SDS011;48140;45.486;9.226;2023-06-22T00:34:55;9.48;;;4.65;;
62153;SDS011;48140;45.486;9.226;2023-06-22T00:37:21;10.75;;;3.97;;
62153;SDS011;48140;45.486;9.226;2023-06-22T00:39:50;8.57;;;4.65;;
62153;SDS011;48140;45.486;9.226;2023-06-22T00:42:16;10.13;;;4.70;;
62153;SDS011;48140;45.486;9.226;2023-06-22T00:44:42;8.07;;;4.60;;
62153;SDS011;48140;45.486;9.226;2023-06-22T00:47:10;9.30;;;4.50;;
62153;SDS011;48140;45.486;9.226;2023-06-22T00:49:38;7.90;;;4.18;;
62153;SDS011;48140;45.486;9.226;2023-06-22T00:52:04;9.05;;;5.03;;
62153;SDS011;48140;45.486;9.226;2023-06-22T00:54:37;12.48;;;4.85;;
62153;SDS011;48140;45.486;9.226;2023-06-22T00:57:03;9.25;;;4.25;;
62153;SDS011;48140;45.486;9.226;2023-06-22T00:59:29;7.88;;;4.88;;
62153;SDS011;48140;45.486;9.226;2023-06-22T01:01:57;9.88;;;4.95;;
62153;SDS011;48140;45.486;9.226;2023-06-22T01:39:30;8.52;;;4.63;;
62153;SDS011;48140;45.486;9.226;2023-06-22T01:48:47;10.32;;;5.35;;
62153;SDS011;48140;45.486;9.226;2023-06-22T01:59:11;12.55;;;5.45;;
62153;SDS011;48140;45.486;9.226;2023-06-22T02:12:16;10.75;;;5.78;;
62153;SDS011;48140;45.486;9.226;2023-06-22T02:22:57;10.02;;;5.30;;
62153;SDS011;48140;45.486;9.226;2023-06-22T02:29:29;11.38;;;5.10;;
62153;SDS011;48140;45.486;9.226;2023-06-22T02:32:24;13.50;;;5.70;;
62153;SDS011;48140;45.486;9.226;2023-06-22T02:39:14;11.27;;;5.68;;
62153;SDS011;48140;45.486;9.226;2023-06-22T02:42:20;9.50;;;5.22;;
62153;SDS011;48140;45.486;9.226;2023-06-22T02:44:49;10.10;;;5.40;;
62153;SDS011;48140;45.486;9.226;2023-06-22T02:58:26;12.43;;;5.40;;
62153;SDS011;48140;45.486;9.226;2023-06-22T03:11:37;10.80;;;5.00;;
62153;SDS011;48140;45.486;9.226;2023-06-22T03:31:14;10.18;;;5.15;;
62153;SDS011;48140;45.486;9.226;2023-06-22T03:33:58;8.50;;;4.93;;
62153;SDS011;48140;45.486;9.226;2023-06-22T03:40:23;6.53;;;4.40;;
62153;SDS011;48140;45.486;9.226;2023-06-22T03:43:38;17.02;;;5.65;;
62153;SDS011;48140;45.486;9.226;2023-06-22T03:49:18;12.35;;;5.22;;
62153;SDS011;48140;45.486;9.226;2023-06-22T03:55:52;13.45;;;6.13;;
62153;SDS011;48140;45.486;9.226;2023-06-22T03:59:16;11.32;;;5.05;;
62153;SDS011;48140;45.486;9.226;2023-06-22T04:05:04;11.65;;;5.28;;
62153;SDS011;48140;45.486;9.226;2023-06-22T04:14:36;10.15;;;5.13;;
62153;SDS011;48140;45.486;9.226;2023-06-22T04:17:28;11.27;;;5.35;;
62153;SDS011;48140;45.486;9.226;2023-06-22T04:20:35;10.00;;;5.93;;
62153;SDS011;48140;45.486;9.226;2023-06-22T06:07:43;12.48;;;5.00;;
62153;SDS011;48140;45.486;9.226;2023-06-22T06:14:20;12.68;;;5.10;;
62153;SDS011;48140;45.486;9.226;2023-06-22T06:23:45;15.18;;;4.95;;
62153;SDS011;48140;45.486;9.226;2023-06-22T06:27:06;9.00;;;4.68;;
62153;SDS011;48140;45.486;9.226;2023-06-22T06:29:36;9.30;;;4.45;;
62153;SDS011;48140;45.486;9.226;2023-06-22T06:32:08;8.75;;;4.35;;
62153;SDS011;48140;45.486;9.226;2023-06-22T06:34:37;8.82;;;4.30;;
62153;SDS011;48140;45.486;9.226;2023-06-22T06:37:05;11.45;;;5.47;;
62153;SDS011;48140;45.486;9.226;2023-06-22T06:39:48;13.73;;;5.10;;
62153;SDS011;48140;45.486;9.226;2023-06-22T06:42:19;12.13;;;4.85;;
62153;SDS011;48140;45.486;9.226;2023-06-22T06:44:56;12.13;;;4.72;;
62153;SDS011;48140;45.486;9.226;2023-06-22T06:47:31;10.20;;;4.82;;
62153;SDS011;48140;45.486;9.226;2023-06-22T06:50:29;10.13;;;5.40;;
62153;SDS011;48140;45.486;9.226;2023-06-22T06:53:33;16.83;;;5.25;;
62153;SDS011;48140;45.486;9.226;2023-06-22T06:59:48;7.90;;;4.72;;
62153;SDS011;48140;45.486;9.226;2023-06-22T07:02:38;7.80;;;4.50;;
62153;SDS011;48140;45.486;9.226;2023-06-22T07:05:11;14.55;;;5.13;;
62153;SDS011;48140;45.486;9.226;2023-06-22T07:07:40;8.23;;;4.43;;
62153;SDS011;48140;45.486;9.226;2023-06-22T07:10:13;10.13;;;4.55;;
62153;SDS011;48140;45.486;9.226;2023-06-22T07:12:46;12.00;;;5.13;;
62153;SDS011;48140;45.486;9.226;2023-06-22T07:15:22;8.88;;;4.40;;
62153;SDS011;48140;45.486;9.226;2023-06-22T07:24:41;11.33;;;5.07;;
62153;SDS011;48140;45.486;9.226;2023-06-22T07:27:46;12.48;;;5.50;;
62153;SDS011;48140;45.486;9.226;2023-06-22T07:30:49;11.73;;;4.70;;
62153;SDS011;48140;45.486;9.226;2023-06-22T07:34:12;10.52;;;4.93;;
62153;SDS011;48140;45.486;9.226;2023-06-22T07:36:57;9.52;;;4.78;;
62153;SDS011;48140;45.486;9.226;2023-06-22T07:39:26;14.18;;;5.40;;
62153;SDS011;48140;45.486;9.226;2023-06-22T07:42:18;11.75;;;5.80;;
62153;SDS011;48140;45.486;9.226;2023-06-22T07:44:53;8.50;;;5.07;;
62153;SDS011;48140;45.486;9.226;2023-06-22T07:47:27;27.15;;;5.35;;
62153;SDS011;48140;45.486;9.226;2023-06-22T07:50:08;12.03;;;4.97;;
62153;SDS011;48140;45.486;9.226;2023-06-22T07:52:40;15.70;;;4.93;;
62153;SDS011;48140;45.486;9.226;2023-06-22T07:55:25;10.15;;;4.80;;
62153;SDS011;48140;45.486;9.226;2023-06-22T07:57:51;10.55;;;5.22;;
62153;SDS011;48140;45.486;9.226;2023-06-22T08:05:34;10.52;;;5.22;;
62153;SDS011;48140;45.486;9.226;2023-06-22T08:08:02;7.93;;;4.30;;
62153;SDS011;48140;45.486;9.226;2023-06-22T08:10:39;12.15;;;4.93;;
62153;SDS011;48140;45.486;9.226;2023-06-22T08:13:32;15.88;;;4.72;;
62153;SDS011;48140;45.486;9.226;2023-06-22T08:16:00;8.57;;;4.10;;
62153;SDS011;48140;45.486;9.226;2023-06-22T08:18:26;10.35;;;4.45;;
62153;SDS011;48140;45.486;9.226;2023-06-22T08:20:52;9.23;;;4.70;;
62153;SDS011;48140;45.486;9.226;2023-06-22T08:23:20;9.73;;;4.57;;
62153;SDS011;48140;45.486;9.226;2023-06-22T08:25:46;10.93;;;4.65;;
62153;SDS011;48140;45.486;9.226;2023-06-22T08:28:15;8.82;;;4.43;;
62153;SDS011;48140;45.486;9.226;2023-06-22T08:30:42;11.30;;;5.03;;
62153;SDS011;48140;45.486;9.226;2023-06-22T08:33:13;15.77;;;4.72;;
62153;SDS011;48140;45.486;9.226;2023-06-22T08:38:30;10.48;;;4.25;;
62153;SDS011;48140;45.486;9.226;2023-06-22T08:40:58;9.30;;;4.25;;
62153;SDS011;48140;45.486;9.226;2023-06-22T08:43:25;15.95;;;5.40;;
62153;SDS011;48140;45.486;9.226;2023-06-22T08:46:08;9.52;;;4.85;;
62153;SDS011;48140;45.486;9.226;2023-06-22T09:09:38;14.00;;;5.28;;
62153;SDS011;48140;45.486;9.226;2023-06-22T09:17:17;8.85;;;4.70;;
62153;SDS011;48140;45.486;9.226;2023-06-22T09:22:22;10.63;;;5.50;;
62153;SDS011;48140;45.486;9.226;2023-06-22T09:24:54;16.90;;;5.28;;
62153;SDS011;48140;45.486;9.226;2023-06-22T09:27:31;14.70;;;5.35;;
62153;SDS011;48140;45.486;9.226;2023-06-22T09:40:42;8.98;;;5.03;;
62153;SDS011;48140;45.486;9.226;2023-06-22T09:43:08;8.68;;;4.82;;
62153;SDS011;48140;45.486;9.226;2023-06-22T09:45:34;12.80;;;5.68;;
62153;SDS011;48140;45.486;9.226;2023-06-22T09:48:01;14.98;;;5.50;;
62153;SDS011;48140;45.486;9.226;2023-06-22T09:53:03;12.05;;;5.32;;
62153;SDS011;48140;45.486;9.226;2023-06-22T09:55:37;11.70;;;5.90;;
62153;SDS011;48140;45.486;9.226;2023-06-22T09:58:41;10.50;;;5.40;;
62153;SDS011;48140;45.486;9.226;2023-06-22T10:01:11;10.17;;;5.20;;
62153;SDS011;48140;45.486;9.226;2023-06-22T10:03:45;9.20;;;5.85;;
62153;SDS011;48140;45.486;9.226;2023-06-22T10:12:23;10.15;;;5.38;;
62153;SDS011;48140;45.486;9.226;2023-06-22T10:14:55;14.80;;;5.72;;
62153;SDS011;48140;45.486;9.226;2023-06-22T10:17:21;19.05;;;6.78;;
62153;SDS011;48140;45.486;9.226;2023-06-22T10:19:47;16.02;;;5.88;;
62153;SDS011;48140;45.486;9.226;2023-06-22T10:22:13;12.90;;;5.63;;
62153;SDS011;48140;45.486;9.226;2023-06-22T10:24:39;12.27;;;5.50;;
62153;SDS011;48140;45.486;9.226;2023-06-22T10:27:10;8.93;;;5.20;;
62153;SDS011;48140;45.486;9.226;2023-06-22T10:29:36;11.52;;;6.10;;
62153;SDS011;48140;45.486;9.226;2023-06-22T10:32:03;16.75;;;5.90;;
62153;SDS011;48140;45.486;9.226;2023-06-22T10:34:29;12.70;;;5.70;;
62153;SDS011;48140;45.486;9.226;2023-06-22T10:36:54;11.98;;;5.15;;
62153;SDS011;48140;45.486;9.226;2023-06-22T10:39:20;16.33;;;5.32;;
62153;SDS011;48140;45.486;9.226;2023-06-22T10:41:46;14.48;;;5.68;;
62153;SDS011;48140;45.486;9.226;2023-06-22T10:44:21;10.80;;;5.50;;
62153;SDS011;48140;45.486;9.226;2023-06-22T10:47:00;19.67;;;4.93;;
62153;SDS011;48140;45.486;9.226;2023-06-22T10:49:35;10.13;;;4.65;;
62153;SDS011;48140;45.486;9.226;2023-06-22T10:52:01;11.82;;;5.65;;
62153;SDS011;48140;45.486;9.226;2023-06-22T10:54:33;12.15;;;4.80;;
62153;SDS011;48140;45.486;9.226;2023-06-22T10:57:00;12.23;;;5.00;;
62153;SDS011;48140;45.486;9.226;2023-06-22T10:59:31;12.45;;;5.53;;
62153;SDS011;48140;45.486;9.226;2023-06-22T11:02:00;8.32;;;5.07;;
62153;SDS011;48140;45.486;9.226;2023-06-22T11:04:33;7.45;;;4.82;;
62153;SDS011;48140;45.486;9.226;2023-06-22T11:09:59;9.10;;;4.75;;
62153;SDS011;48140;45.486;9.226;2023-06-22T11:19:25;12.30;;;4.53;;
62153;SDS011;48140;45.486;9.226;2023-06-22T11:42:39;6.65;;;4.50;;
62153;SDS011;48140;45.486;9.226;2023-06-22T11:45:06;10.43;;;4.57;;
62153;SDS011;48140;45.486;9.226;2023-06-22T11:50:08;8.98;;;3.95;;
62153;SDS011;48140;45.486;9.226;2023-06-22T11:52:34;7.63;;;4.10;;
62153;SDS011;48140;45.486;9.226;2023-06-22T11:57:36;8.80;;;4.05;;
62153;SDS011;48140;45.486;9.226;2023-06-22T12:18:11;7.30;;;3.95;;
62153;SDS011;48140;45.486;9.226;2023-06-22T12:25:50;6.97;;;3.60;;
62153;SDS011;48140;45.486;9.226;2023-06-22T12:41:35;11.50;;;4.80;;
62153;SDS011;48140;45.486;9.226;2023-06-22T12:44:31;8.43;;;4.38;;
62153;SDS011;48140;45.486;9.226;2023-06-22T12:47:01;9.48;;;4.78;;
62153;SDS011;48140;45.486;9.226;2023-06-22T13:25:45;11.65;;;4.75;;
62153;SDS011;48140;45.486;9.226;2023-06-22T13:28:18;6.45;;;4.10;;
62153;SDS011;48140;45.486;9.226;2023-06-22T13:31:15;7.75;;;4.65;;
62153;SDS011;48140;45.486;9.226;2023-06-22T13:33:44;9.93;;;4.63;;
62153;SDS011;48140;45.486;9.226;2023-06-22T13:36:13;6.68;;;4.65;;
62153;SDS011;48140;45.486;9.226;2023-06-22T13:38:44;6.65;;;4.35;;
62153;SDS011;48140;45.486;9.226;2023-06-22T13:41:10;9.15;;;4.50;;
62153;SDS011;48140;45.486;9.226;2023-06-22T13:43:36;9.32;;;4.43;;
62153;SDS011;48140;45.486;9.226;2023-06-22T13:46:02;9.00;;;4.50;;
62153;SDS011;48140;45.486;9.226;2023-06-22T13:48:28;7.40;;;3.95;;
62153;SDS011;48140;45.486;9.226;2023-06-22T13:50:54;12.55;;;4.30;;
62153;SDS011;48140;45.486;9.226;2023-06-22T13:53:20;10.48;;;4.60;;
62153;SDS011;48140;45.486;9.226;2023-06-22T13:55:46;9.52;;;4.47;;
62153;SDS011;48140;45.486;9.226;2023-06-22T13:58:12;9.13;;;4.53;;
62153;SDS011;48140;45.486;9.226;2023-06-22T14:00:39;10.18;;;5.28;;
62153;SDS011;48140;45.486;9.226;2023-06-22T14:03:04;10.18;;;4.70;;
62153;SDS011;48140;45.486;9.226;2023-06-22T14:05:30;8.85;;;3.95;;
62153;SDS011;48140;45.486;9.226;2023-06-22T14:08:05;18.60;;;4.68;;
62153;SDS011;48140;45.486;9.226;2023-06-22T14:10:32;12.23;;;4.47;;
62153;SDS011;48140;45.486;9.226;2023-06-22T14:16:06;9.80;;;4.57;;
62153;SDS011;48140;45.486;9.226;2023-06-22T14:18:44;10.02;;;4.38;;
62153;SDS011;48140;45.486;9.226;2023-06-22T14:21:19;11.07;;;5.07;;
62153;SDS011;48140;45.486;9.226;2023-06-22T14:23:53;10.30;;;5.18;;
62153;SDS011;48140;45.486;9.226;2023-06-22T14:26:19;18.02;;;5.05;;
62153;SDS011;48140;45.486;9.226;2023-06-22T14:28:46;13.85;;;5.95;;
62153;SDS011;48140;45.486;9.226;2023-06-22T14:31:16;8.73;;;5.80;;
62153;SDS011;48140;45.486;9.226;2023-06-22T14:33:50;12.10;;;5.78;;
62153;SDS011;48140;45.486;9.226;2023-06-22T14:36:31;9.90;;;5.57;;
62153;SDS011;48140;45.486;9.226;2023-06-22T14:39:06;11.82;;;5.68;;
62153;SDS011;48140;45.486;9.226;2023-06-22T14:41:34;15.45;;;5.40;;
62153;SDS011;48140;45.486;9.226;2023-06-22T14:44:02;16.15;;;5.63;;
62153;SDS011;48140;45.486;9.226;2023-06-22T14:46:28;12.75;;;5.30;;
62153;SDS011;48140;45.486;9.226;2023-06-22T14:48:57;11.82;;;4.93;;
62153;SDS011;48140;45.486;9.226;2023-06-22T14:51:26;13.60;;;5.40;;
62153;SDS011;48140;45.486;9.226;2023-06-22T14:53:52;7.70;;;4.53;;
62153;SDS011;48140;45.486;9.226;2023-06-22T14:56:18;11.57;;;5.00;;
62153;SDS011;48140;45.486;9.226;2023-06-22T14:58:44;18.08;;;6.07;;
62153;SDS011;48140;45.486;9.226;2023-06-22T15:01:10;12.00;;;5.47;;
62153;SDS011;48140;45.486;9.226;2023-06-22T15:03:37;10.10;;;5.40;;
62153;SDS011;48140;45.486;9.226;2023-06-22T15:06:03;14.45;;;5.53;;
62153;SDS011;48140;45.486;9.226;2023-06-22T15:08:29;14.50;;;5.20;;
62153;SDS011;48140;45.486;9.226;2023-06-22T15:10:58;10.95;;;5.13;;
62153;SDS011;48140;45.486;9.226;2023-06-22T15:13:26;9.52;;;4.63;;
62153;SDS011;48140;45.486;9.226;2023-06-22T15:15:52;9.95;;;5.10;;
62153;SDS011;48140;45.486;9.226;2023-06-22T15:18:18;8.85;;;4.95;;
62153;SDS011;48140;45.486;9.226;2023-06-22T15:20:44;12.15;;;4.72;;
62153;SDS011;48140;45.486;9.226;2023-06-22T15:23:11;7.55;;;4.07;;
62153;SDS011;48140;45.486;9.226;2023-06-22T15:25:37;10.13;;;4.00;;
62153;SDS011;48140;45.486;9.226;2023-06-22T15:28:03;11.20;;;3.95;;
62153;SDS011;48140;45.486;9.226;2023-06-22T15:30:29;7.00;;;3.90;;
62153;SDS011;48140;45.486;9.226;2023-06-22T15:32:56;7.88;;;3.78;;
62153;SDS011;48140;45.486;9.226;2023-06-22T15:35:22;8.65;;;4.30;;
62153;SDS011;48140;45.486;9.226;2023-06-22T15:37:48;8.70;;;4.38;;
62153;SDS011;48140;45.486;9.226;2023-06-22T15:40:14;8.90;;;4.00;;
62153;SDS011;48140;45.486;9.226;2023-06-22T15:42:40;10.32;;;4.00;;
62153;SDS011;48140;45.486;9.226;2023-06-22T15:45:06;12.88;;;3.83;;
62153;SDS011;48140;45.486;9.226;2023-06-22T15:47:32;5.63;;;3.92;;
62153;SDS011;48140;45.486;9.226;2023-06-22T15:49:57;11.73;;;4.70;;
62153;SDS011;48140;45.486;9.226;2023-06-22T15:52:23;12.55;;;4.13;;
62153;SDS011;48140;45.486;9.226;2023-06-22T15:54:49;9.65;;;4.10;;
62153;SDS011;48140;45.486;9.226;2023-06-22T15:57:16;8.48;;;4.32;;
62153;SDS011;48140;45.486;9.226;2023-06-22T15:59:42;6.78;;;3.85;;
62153;SDS011;48140;45.486;9.226;2023-06-22T16:02:08;7.32;;;3.55;;
62153;SDS011;48140;45.486;9.226;2023-06-22T16:04:35;7.40;;;3.70;;
62153;SDS011;48140;45.486;9.226;2023-06-22T16:07:01;14.00;;;4.30;;
62153;SDS011;48140;45.486;9.226;2023-06-22T16:09:27;12.00;;;4.13;;
62153;SDS011;48140;45.486;9.226;2023-06-22T16:11:55;6.43;;;3.67;;
62153;SDS011;48140;45.486;9.226;2023-06-22T16:14:21;7.25;;;3.70;;
62153;SDS011;48140;45.486;9.226;2023-06-22T16:16:47;7.32;;;3.75;;
62153;SDS011;48140;45.486;9.226;2023-06-22T16:19:13;6.03;;;3.47;;
62153;SDS011;48140;45.486;9.226;2023-06-22T16:21:40;15.38;;;4.10;;
62153;SDS011;48140;45.486;9.226;2023-06-22T16:24:06;10.13;;;4.53;;
62153;SDS011;48140;45.486;9.226;2023-06-22T16:26:39;8.63;;;3.72;;
62153;SDS011;48140;45.486;9.226;2023-06-22T16:29:07;5.88;;;3.53;;
62153;SDS011;48140;45.486;9.226;2023-06-22T16:31:33;8.07;;;3.90;;
62153;SDS011;48140;45.486;9.226;2023-06-22T16:33:59;5.55;;;3.33;;
62153;SDS011;48140;45.486;9.226;2023-06-22T16:36:26;6.28;;;3.53;;
62153;SDS011;48140;45.486;9.226;2023-06-22T16:38:52;5.63;;;3.65;;
62153;SDS011;48140;45.486;9.226;2023-06-22T16:41:18;7.15;;;3.40;;
62153;SDS011;48140;45.486;9.226;2023-06-22T16:43:44;8.65;;;3.35;;
62153;SDS011;48140;45.486;9.226;2023-06-22T16:46:10;7.53;;;3.70;;
62153;SDS011;48140;45.486;9.226;2023-06-22T16:48:36;8.15;;;4.25;;
62153;SDS011;48140;45.486;9.226;2023-06-22T16:51:02;8.15;;;3.75;;
62153;SDS011;48140;45.486;9.226;2023-06-22T16:53:28;9.10;;;4.10;;
62153;SDS011;48140;45.486;9.226;2023-06-22T16:55:54;6.60;;;3.80;;
62153;SDS011;48140;45.486;9.226;2023-06-22T16:58:20;8.82;;;3.92;;
62153;SDS011;48140;45.486;9.226;2023-06-22T17:00:51;8.90;;;3.95;;
62153;SDS011;48140;45.486;9.226;2023-06-22T17:03:28;11.90;;;3.78;;
62153;SDS011;48140;45.486;9.226;2023-06-22T17:05:55;6.60;;;3.72;;
62153;SDS011;48140;45.486;9.226;2023-06-22T17:08:22;6.45;;;3.95;;
62153;SDS011;48140;45.486;9.226;2023-06-22T17:10:50;10.32;;;4.00;;
62153;SDS011;48140;45.486;9.226;2023-06-22T17:16:31;9.15;;;3.60;;
62153;SDS011;48140;45.486;9.226;2023-06-22T17:18:58;12.35;;;4.13;;
62153;SDS011;48140;45.486;9.226;2023-06-22T17:21:30;6.13;;;3.70;;
62153;SDS011;48140;45.486;9.226;2023-06-22T17:24:00;7.18;;;4.13;;
62153;SDS011;48140;45.486;9.226;2023-06-22T17:26:27;9.60;;;4.35;;
62153;SDS011;48140;45.486;9.226;2023-06-22T17:28:53;7.85;;;4.22;;
62153;SDS011;48140;45.486;9.226;2023-06-22T17:31:46;7.40;;;4.28;;
62153;SDS011;48140;45.486;9.226;2023-06-22T17:34:13;9.40;;;4.32;;
62153;SDS011;48140;45.486;9.226;2023-06-22T17:36:51;9.80;;;4.20;;
62153;SDS011;48140;45.486;9.226;2023-06-22T17:39:27;6.80;;;4.20;;
62153;SDS011;48140;45.486;9.226;2023-06-22T17:42:07;13.82;;;4.22;;
62153;SDS011;48140;45.486;9.226;2023-06-22T17:44:33;7.25;;;3.90;;
62153;SDS011;48140;45.486;9.226;2023-06-22T17:47:00;7.07;;;4.10;;
62153;SDS011;48140;45.486;9.226;2023-06-22T17:52:39;9.15;;;3.83;;
62153;SDS011;48140;45.486;9.226;2023-06-22T17:59:18;8.95;;;4.00;;
62153;SDS011;48140;45.486;9.226;2023-06-22T18:02:44;8.82;;;4.03;;
62153;SDS011;48140;45.486;9.226;2023-06-22T18:05:44;7.72;;;3.70;;
62153;SDS011;48140;45.486;9.226;2023-06-22T18:08:21;5.00;;;3.55;;
62153;SDS011;48140;45.486;9.226;2023-06-22T18:11:32;6.20;;;4.03;;
62153;SDS011;48140;45.486;9.226;2023-06-22T18:25:05;6.95;;;3.97;;
62153;SDS011;48140;45.486;9.226;2023-06-22T18:34:17;10.50;;;4.50;;
62153;SDS011;48140;45.486;9.226;2023-06-22T18:37:31;9.52;;;4.63;;
62153;SDS011;48140;45.486;9.226;2023-06-22T18:40:28;7.45;;;4.53;;
62153;SDS011;48140;45.486;9.226;2023-06-22T18:43:02;7.32;;;4.32;;
62153;SDS011;48140;45.486;9.226;2023-06-22T18:45:31;8.02;;;4.28;;
62153;SDS011;48140;45.486;9.226;2023-06-22T18:48:03;7.43;;;4.18;;
62153;SDS011;48140;45.486;9.226;2023-06-22T19:04:20;7.82;;;4.50;;
62153;SDS011;48140;45.486;9.226;2023-06-22T20:12:42;12.32;;;4.70;;
62153;SDS011;48140;45.486;9.226;2023-06-22T20:19:41;8.52;;;4.65;;
62153;SDS011;48140;45.486;9.226;2023-06-22T20:56:32;17.52;;;5.65;;
62153;SDS011;48140;45.486;9.226;2023-06-22T21:06:49;10.02;;;4.97;;
62153;SDS011;48140;45.486;9.226;2023-06-22T21:09:44;13.05;;;5.32;;
62153;SDS011;48140;45.486;9.226;2023-06-22T21:25:19;9.02;;;4.80;;
62153;SDS011;48140;45.486;9.226;2023-06-22T21:28:23;7.60;;;5.18;;
62153;SDS011;48140;45.486;9.226;2023-06-22T21:30:56;12.13;;;5.35;;
62153;SDS011;48140;45.486;9.226;2023-06-22T21:34:17;15.05;;;6.20;;
